PWSweather.com
Personal Weather Stations
Station Observations
EI4HQ
Cork Harbour, CobhIE

Cork HarbourCobhIE

Lat: 51.85, Lon: -8.29

Elevation: 252

Station Type: Davis Vantage Pro2

http://www.corkharbourweather.ie

Latest ConditionsUpdated 7:27:01 AM GMT Wednesday, Feb 21, 2018
Currently Today's Max Today's Min Today's Average
Temperature 34.0°F1.1°C 37.2°F2.9°C 34.0°F1.1°C 35.8°F2.1°C
Dew Point 32.4°F0.2°C 34.7°F1.5°C 32.2°F0.1°C 33.7°F0.9°C
Winds 6.0 mph NNW9.7 kmh NNW 10.0 mph NNW16.1 kmh NNW - 6.6 mph 10.6 kmh
Wind Gusts 8.0 mph12.9 kmh 12.0 mph19.3 kmh - -
Humidity 94% 94% 90% 92%
Pressure 30.36 in1028.1 mb 30.41 in1029.8 mb 30.35 in1027.8 mb -
Hour Temp Dew Point Humidity Winds Wind Gusts Pressure Precip Precip Rate Daily Precip Total
07:27 AM 34.0°F1.1°C 32.4°F0.2°C 94% 6.0 mph NNW9.7 kmh NNW 8.0 mph12.9 kmh 30.36 in1028.1 mb 0.00 in0.0 mm 0.00 in0.0 mm 0.00 in0.0 mm
07:24 AM 34.0°F1.1°C 32.4°F0.2°C 94% 6.0 mph NNW9.7 kmh NNW 8.0 mph12.9 kmh 30.36 in1028.1 mb 0.00 in0.0 mm 0.00 in0.0 mm 0.00 in0.0 mm
07:21 AM 34.0°F1.1°C 32.4°F0.2°C 94% 6.0 mph NNW9.7 kmh NNW 8.0 mph12.9 kmh 30.35 in1027.8 mb 0.00 in0.0 mm 0.00 in0.0 mm 0.00 in0.0 mm
07:18 AM 34.0°F1.1°C 32.4°F0.2°C 94% 5.0 mph NNW8.0 kmh NNW 8.0 mph12.9 kmh 30.36 in1028.1 mb 0.00 in0.0 mm 0.00 in0.0 mm 0.00 in0.0 mm
07:15 AM 34.0°F1.1°C 32.2°F0.1°C 93% 5.0 mph NNW8.0 kmh NNW 8.0 mph12.9 kmh 30.36 in1028.1 mb 0.00 in0.0 mm 0.00 in0.0 mm 0.00 in0.0 mm
07:12 AM 34.2°F1.2°C 32.7°F0.4°C 94% 5.0 mph NNW8.0 kmh NNW 8.0 mph12.9 kmh 30.35 in1027.8 mb 0.00 in0.0 mm 0.00 in0.0 mm 0.00 in0.0 mm
07:09 AM 34.3°F1.3°C 32.7°F0.4°C 94% 5.0 mph N8.0 kmh N 8.0 mph12.9 kmh 30.36 in1028.1 mb 0.00 in0.0 mm 0.00 in0.0 mm 0.00 in0.0 mm
07:06 AM 34.3°F1.3°C 32.7°F0.4°C 94% 5.0 mph N8.0 kmh N 8.0 mph12.9 kmh 30.35 in1027.8 mb 0.00 in0.0 mm 0.00 in0.0 mm 0.00 in0.0 mm
07:03 AM 34.3°F1.3°C 32.9°F0.5°C 94% 5.0 mph N8.0 kmh N 8.0 mph12.9 kmh 30.35 in1027.8 mb 0.00 in0.0 mm 0.00 in0.0 mm 0.00 in0.0 mm
07:00 AM 34.3°F1.3°C 32.9°F0.5°C 94% 5.0 mph NNW8.0 kmh NNW 8.0 mph12.9 kmh 30.35 in1027.8 mb 0.00 in0.0 mm 0.00 in0.0 mm 0.00 in0.0 mm
06:57 AM 34.3°F1.3°C 32.7°F0.4°C 94% 5.0 mph NNW8.0 kmh NNW 8.0 mph12.9 kmh 30.35 in1027.8 mb 0.00 in0.0 mm 0.00 in0.0 mm 0.00 in0.0 mm
06:54 AM 34.3°F1.3°C 32.7°F0.4°C 94% 5.0 mph NNW8.0 kmh NNW 6.0 mph9.7 kmh 30.35 in1027.8 mb 0.00 in0.0 mm 0.00 in0.0 mm 0.00 in0.0 mm
06:51 AM 34.3°F1.3°C 32.5°F0.3°C 93% 5.0 mph NNW8.0 kmh NNW 8.0 mph12.9 kmh 30.35 in1027.8 mb 0.00 in0.0 mm 0.00 in0.0 mm 0.00 in0.0 mm
06:48 AM 34.3°F1.3°C 32.5°F0.3°C 93% 5.0 mph NNW8.0 kmh NNW 8.0 mph12.9 kmh 30.35 in1027.8 mb 0.00 in0.0 mm 0.00 in0.0 mm 0.00 in0.0 mm
06:45 AM 34.5°F1.4°C 32.7°F0.4°C 93% 5.0 mph NNW8.0 kmh NNW 8.0 mph12.9 kmh 30.35 in1027.8 mb 0.00 in0.0 mm 0.00 in0.0 mm 0.00 in0.0 mm
06:42 AM 34.5°F1.4°C 32.7°F0.4°C 93% 5.0 mph N8.0 kmh N 8.0 mph12.9 kmh 30.35 in1027.8 mb 0.00 in0.0 mm 0.00 in0.0 mm 0.00 in0.0 mm
06:39 AM 34.7°F1.5°C 32.9°F0.5°C 93% 4.0 mph N6.4 kmh N 8.0 mph12.9 kmh 30.35 in1027.8 mb 0.00 in0.0 mm 0.00 in0.0 mm 0.00 in0.0 mm
06:36 AM 34.9°F1.6°C 33.3°F0.7°C 94% 4.0 mph N6.4 kmh N 6.0 mph9.7 kmh 30.36 in1028.1 mb 0.00 in0.0 mm 0.00 in0.0 mm 0.00 in0.0 mm
06:33 AM 34.9°F1.6°C 33.3°F0.7°C 94% 4.0 mph N6.4 kmh N 6.0 mph9.7 kmh 30.35 in1027.8 mb 0.00 in0.0 mm 0.00 in0.0 mm 0.00 in0.0 mm
06:30 AM 34.7°F1.5°C 33.1°F0.6°C 94% 5.0 mph N8.0 kmh N 9.0 mph14.5 kmh 30.35 in1027.8 mb 0.00 in0.0 mm 0.00 in0.0 mm 0.00 in0.0 mm
06:27 AM 34.5°F1.4°C 32.7°F0.4°C 93% 6.0 mph NNW9.7 kmh NNW 9.0 mph14.5 kmh 30.36 in1028.1 mb 0.00 in0.0 mm 0.00 in0.0 mm 0.00 in0.0 mm
06:24 AM 34.5°F1.4°C 33.1°F0.6°C 94% 6.0 mph NNW9.7 kmh NNW 9.0 mph14.5 kmh 30.36 in1028.1 mb 0.00 in0.0 mm 0.00 in0.0 mm 0.00 in0.0 mm
06:21 AM 34.5°F1.4°C 32.7°F0.4°C 93% 6.0 mph NNW9.7 kmh NNW 9.0 mph14.5 kmh 30.35 in1027.8 mb 0.00 in0.0 mm 0.00 in0.0 mm 0.00 in0.0 mm
06:18 AM 34.7°F1.5°C 32.9°F0.5°C 93% 6.0 mph N9.7 kmh N 9.0 mph14.5 kmh 30.36 in1028.1 mb 0.00 in0.0 mm 0.00 in0.0 mm 0.00 in0.0 mm
06:15 AM 34.7°F1.5°C 32.9°F0.5°C 93% 6.0 mph N9.7 kmh N 9.0 mph14.5 kmh 30.36 in1028.1 mb 0.00 in0.0 mm 0.00 in0.0 mm 0.00 in0.0 mm
06:12 AM 34.7°F1.5°C 32.9°F0.5°C 93% 6.0 mph NNW9.7 kmh NNW 9.0 mph14.5 kmh 30.35 in1027.8 mb 0.00 in0.0 mm 0.00 in0.0 mm 0.00 in0.0 mm
06:09 AM 34.7°F1.5°C 32.9°F0.5°C 93% 6.0 mph NNW9.7 kmh NNW 8.0 mph12.9 kmh 30.36 in1028.1 mb 0.00 in0.0 mm 0.00 in0.0 mm 0.00 in0.0 mm
06:06 AM 34.9°F1.6°C 32.9°F0.5°C 93% 6.0 mph NNW9.7 kmh NNW 9.0 mph14.5 kmh 30.36 in1028.1 mb 0.00 in0.0 mm 0.00 in0.0 mm 0.00 in0.0 mm
06:03 AM 34.9°F1.6°C 33.1°F0.6°C 93% 6.0 mph NNW9.7 kmh NNW 9.0 mph14.5 kmh 30.36 in1028.1 mb 0.00 in0.0 mm 0.00 in0.0 mm 0.00 in0.0 mm
06:00 AM 34.9°F1.6°C 33.1°F0.6°C 93% 6.0 mph NNW9.7 kmh NNW 10.0 mph16.1 kmh 30.36 in1028.1 mb 0.00 in0.0 mm 0.00 in0.0 mm 0.00 in0.0 mm
05:57 AM 35.1°F1.7°C 33.3°F0.7°C 93% 6.0 mph NNW9.7 kmh NNW 10.0 mph16.1 kmh 30.36 in1028.1 mb 0.00 in0.0 mm 0.00 in0.0 mm 0.00 in0.0 mm
05:54 AM 35.1°F1.7°C 33.3°F0.7°C 93% 7.0 mph NNW11.3 kmh NNW 10.0 mph16.1 kmh 30.36 in1028.1 mb 0.00 in0.0 mm 0.00 in0.0 mm 0.00 in0.0 mm
05:51 AM 35.1°F1.7°C 33.3°F0.7°C 93% 6.0 mph NNW9.7 kmh NNW 9.0 mph14.5 kmh 30.36 in1028.1 mb 0.00 in0.0 mm 0.00 in0.0 mm 0.00 in0.0 mm
05:48 AM 35.2°F1.8°C 33.4°F0.8°C 93% 6.0 mph NNW9.7 kmh NNW 9.0 mph14.5 kmh 30.36 in1028.1 mb 0.00 in0.0 mm 0.00 in0.0 mm 0.00 in0.0 mm
05:45 AM 35.2°F1.8°C 33.4°F0.8°C 93% 6.0 mph NNW9.7 kmh NNW 9.0 mph14.5 kmh 30.36 in1028.1 mb 0.00 in0.0 mm 0.00 in0.0 mm 0.00 in0.0 mm
05:42 AM 35.2°F1.8°C 33.4°F0.8°C 93% 6.0 mph N9.7 kmh N 9.0 mph14.5 kmh 30.36 in1028.1 mb 0.00 in0.0 mm 0.00 in0.0 mm 0.00 in0.0 mm
05:39 AM 35.4°F1.9°C 33.6°F0.9°C 93% 7.0 mph N11.3 kmh N 9.0 mph14.5 kmh 30.36 in1028.1 mb 0.00 in0.0 mm 0.00 in0.0 mm 0.00 in0.0 mm
05:36 AM 35.2°F1.8°C 33.4°F0.8°C 93% 6.0 mph N9.7 kmh N 9.0 mph14.5 kmh 30.36 in1028.1 mb 0.00 in0.0 mm 0.00 in0.0 mm 0.00 in0.0 mm
05:33 AM 35.2°F1.8°C 33.4°F0.8°C 93% 5.0 mph NNW8.0 kmh NNW 9.0 mph14.5 kmh 30.36 in1028.1 mb 0.00 in0.0 mm 0.00 in0.0 mm 0.00 in0.0 mm
05:30 AM 35.2°F1.8°C 33.4°F0.8°C 93% 4.0 mph NNW6.4 kmh NNW 8.0 mph12.9 kmh 30.36 in1028.1 mb 0.00 in0.0 mm 0.00 in0.0 mm 0.00 in0.0 mm
05:27 AM 35.2°F1.8°C 33.4°F0.8°C 93% 5.0 mph NNW8.0 kmh NNW 9.0 mph14.5 kmh 30.36 in1028.1 mb 0.00 in0.0 mm 0.00 in0.0 mm 0.00 in0.0 mm
05:24 AM 35.4°F1.9°C 33.6°F0.9°C 93% 5.0 mph NNW8.0 kmh NNW 9.0 mph14.5 kmh 30.37 in1028.4 mb 0.00 in0.0 mm 0.00 in0.0 mm 0.00 in0.0 mm
05:21 AM 35.4°F1.9°C 33.6°F0.9°C 93% 6.0 mph NNW9.7 kmh NNW 9.0 mph14.5 kmh 30.36 in1028.1 mb 0.00 in0.0 mm 0.00 in0.0 mm 0.00 in0.0 mm
05:18 AM 35.4°F1.9°C 33.6°F0.9°C 93% 6.0 mph NNW9.7 kmh NNW 9.0 mph14.5 kmh 30.36 in1028.1 mb 0.00 in0.0 mm 0.00 in0.0 mm 0.00 in0.0 mm
05:15 AM 35.4°F1.9°C 33.6°F0.9°C 93% 6.0 mph NNW9.7 kmh NNW 9.0 mph14.5 kmh 30.36 in1028.1 mb 0.00 in0.0 mm 0.00 in0.0 mm 0.00 in0.0 mm
05:12 AM 35.4°F1.9°C 33.6°F0.9°C 93% 7.0 mph NNW11.3 kmh NNW 10.0 mph16.1 kmh 30.36 in1028.1 mb 0.00 in0.0 mm 0.00 in0.0 mm 0.00 in0.0 mm
05:09 AM 35.4°F1.9°C 33.6°F0.9°C 93% 7.0 mph NNW11.3 kmh NNW 10.0 mph16.1 kmh 30.36 in1028.1 mb 0.00 in0.0 mm 0.00 in0.0 mm 0.00 in0.0 mm
05:06 AM 35.4°F1.9°C 33.6°F0.9°C 93% 7.0 mph NNW11.3 kmh NNW 10.0 mph16.1 kmh 30.36 in1028.1 mb 0.00 in0.0 mm 0.00 in0.0 mm 0.00 in0.0 mm
05:03 AM 35.4°F1.9°C 33.6°F0.9°C 93% 7.0 mph NNW11.3 kmh NNW 10.0 mph16.1 kmh 30.36 in1028.1 mb 0.00 in0.0 mm 0.00 in0.0 mm 0.00 in0.0 mm
05:00 AM 35.4°F1.9°C 33.6°F0.9°C 93% 6.0 mph NNW9.7 kmh NNW 9.0 mph14.5 kmh 30.36 in1028.1 mb 0.00 in0.0 mm 0.00 in0.0 mm 0.00 in0.0 mm
04:57 AM 35.2°F1.8°C 33.4°F0.8°C 93% 6.0 mph NNW9.7 kmh NNW 8.0 mph12.9 kmh 30.36 in1028.1 mb 0.00 in0.0 mm 0.00 in0.0 mm 0.00 in0.0 mm
04:54 AM 35.2°F1.8°C 33.4°F0.8°C 93% 5.0 mph NNW8.0 kmh NNW 8.0 mph12.9 kmh 30.36 in1028.1 mb 0.00 in0.0 mm 0.00 in0.0 mm 0.00 in0.0 mm
04:51 AM 35.1°F1.7°C 33.3°F0.7°C 93% 5.0 mph N8.0 kmh N 8.0 mph12.9 kmh 30.36 in1028.1 mb 0.00 in0.0 mm 0.00 in0.0 mm 0.00 in0.0 mm
04:48 AM 35.1°F1.7°C 33.3°F0.7°C 93% 4.0 mph NNW6.4 kmh NNW 8.0 mph12.9 kmh 30.36 in1028.1 mb 0.00 in0.0 mm 0.00 in0.0 mm 0.00 in0.0 mm
04:45 AM 35.2°F1.8°C 33.4°F0.8°C 93% 5.0 mph NNW8.0 kmh NNW 8.0 mph12.9 kmh 30.37 in1028.4 mb 0.00 in0.0 mm 0.00 in0.0 mm 0.00 in0.0 mm
04:42 AM 35.2°F1.8°C 33.4°F0.8°C 93% 5.0 mph NNW8.0 kmh NNW 9.0 mph14.5 kmh 30.37 in1028.4 mb 0.00 in0.0 mm 0.00 in0.0 mm 0.00 in0.0 mm
04:39 AM 35.2°F1.8°C 33.4°F0.8°C 93% 7.0 mph NNW11.3 kmh NNW 10.0 mph16.1 kmh 30.36 in1028.1 mb 0.00 in0.0 mm 0.00 in0.0 mm 0.00 in0.0 mm
04:36 AM 35.2°F1.8°C 33.4°F0.8°C 93% 8.0 mph NNW12.9 kmh NNW 11.0 mph17.7 kmh 30.36 in1028.1 mb 0.00 in0.0 mm 0.00 in0.0 mm 0.00 in0.0 mm
04:33 AM 35.2°F1.8°C 33.4°F0.8°C 93% 8.0 mph NNW12.9 kmh NNW 11.0 mph17.7 kmh 30.37 in1028.4 mb 0.00 in0.0 mm 0.00 in0.0 mm 0.00 in0.0 mm
04:30 AM 35.2°F1.8°C 33.4°F0.8°C 93% 8.0 mph NNW12.9 kmh NNW 11.0 mph17.7 kmh 30.36 in1028.1 mb 0.00 in0.0 mm 0.00 in0.0 mm 0.00 in0.0 mm
04:27 AM 35.2°F1.8°C 33.4°F0.8°C 93% 8.0 mph NNW12.9 kmh NNW 11.0 mph17.7 kmh 30.36 in1028.1 mb 0.00 in0.0 mm 0.00 in0.0 mm 0.00 in0.0 mm
04:24 AM 35.1°F1.7°C 32.9°F0.5°C 92% 7.0 mph NNW11.3 kmh NNW 9.0 mph14.5 kmh 30.37 in1028.4 mb 0.00 in0.0 mm 0.00 in0.0 mm 0.00 in0.0 mm
04:21 AM 35.1°F1.7°C 32.9°F0.5°C 92% 7.0 mph NNW11.3 kmh NNW 9.0 mph14.5 kmh 30.37 in1028.4 mb 0.00 in0.0 mm 0.00 in0.0 mm 0.00 in0.0 mm
04:18 AM 35.1°F1.7°C 33.1°F0.6°C 92% 7.0 mph NNW11.3 kmh NNW 10.0 mph16.1 kmh 30.37 in1028.4 mb 0.00 in0.0 mm 0.00 in0.0 mm 0.00 in0.0 mm
04:15 AM 35.2°F1.8°C 33.1°F0.6°C 92% 6.0 mph NNW9.7 kmh NNW 10.0 mph16.1 kmh 30.37 in1028.4 mb 0.00 in0.0 mm 0.00 in0.0 mm 0.00 in0.0 mm
04:12 AM 35.2°F1.8°C 33.1°F0.6°C 92% 5.0 mph NNW8.0 kmh NNW 10.0 mph16.1 kmh 30.37 in1028.4 mb 0.00 in0.0 mm 0.00 in0.0 mm 0.00 in0.0 mm
04:09 AM 35.2°F1.8°C 32.9°F0.5°C 91% 3.0 mph NW4.8 kmh NW 9.0 mph14.5 kmh 30.37 in1028.4 mb 0.00 in0.0 mm 0.00 in0.0 mm 0.00 in0.0 mm
04:06 AM 35.4°F1.9°C 33.1°F0.6°C 91% 3.0 mph NW4.8 kmh NW 8.0 mph12.9 kmh 30.37 in1028.4 mb 0.00 in0.0 mm 0.00 in0.0 mm 0.00 in0.0 mm
04:03 AM 35.6°F2.0°C 33.3°F0.7°C 91% 4.0 mph NNW6.4 kmh NNW 8.0 mph12.9 kmh 30.38 in1028.8 mb 0.00 in0.0 mm 0.00 in0.0 mm 0.00 in0.0 mm
04:00 AM 35.6°F2.0°C 33.3°F0.7°C 91% 5.0 mph NNW8.0 kmh NNW 8.0 mph12.9 kmh 30.37 in1028.4 mb 0.00 in0.0 mm 0.00 in0.0 mm 0.00 in0.0 mm
03:57 AM 35.8°F2.1°C 33.3°F0.7°C 91% 5.0 mph NNW8.0 kmh NNW 9.0 mph14.5 kmh 30.37 in1028.4 mb 0.00 in0.0 mm 0.00 in0.0 mm 0.00 in0.0 mm
03:54 AM 36.0°F2.2°C 33.4°F0.8°C 91% 6.0 mph NNW9.7 kmh NNW 9.0 mph14.5 kmh 30.37 in1028.4 mb 0.00 in0.0 mm 0.00 in0.0 mm 0.00 in0.0 mm
03:51 AM 36.1°F2.3°C 33.8°F1.0°C 91% 7.0 mph NNW11.3 kmh NNW 9.0 mph14.5 kmh 30.37 in1028.4 mb 0.00 in0.0 mm 0.00 in0.0 mm 0.00 in0.0 mm
03:48 AM 36.3°F2.4°C 34.0°F1.1°C 91% 7.0 mph NNW11.3 kmh NNW 9.0 mph14.5 kmh 30.37 in1028.4 mb 0.00 in0.0 mm 0.00 in0.0 mm 0.00 in0.0 mm
03:45 AM 36.3°F2.4°C 34.0°F1.1°C 91% 6.0 mph NNW9.7 kmh NNW 9.0 mph14.5 kmh 30.37 in1028.4 mb 0.00 in0.0 mm 0.00 in0.0 mm 0.00 in0.0 mm
03:42 AM 36.5°F2.5°C 34.2°F1.2°C 91% 6.0 mph NNW9.7 kmh NNW 9.0 mph14.5 kmh 30.37 in1028.4 mb 0.00 in0.0 mm 0.00 in0.0 mm 0.00 in0.0 mm
03:39 AM 36.7°F2.6°C 34.5°F1.4°C 92% 6.0 mph N9.7 kmh N 10.0 mph16.1 kmh 30.37 in1028.4 mb 0.00 in0.0 mm 0.00 in0.0 mm 0.00 in0.0 mm
03:36 AM 36.7°F2.6°C 34.5°F1.4°C 92% 7.0 mph N11.3 kmh N 10.0 mph16.1 kmh 30.38 in1028.8 mb 0.00 in0.0 mm 0.00 in0.0 mm 0.00 in0.0 mm
03:33 AM 36.7°F2.6°C 34.5°F1.4°C 92% 7.0 mph N11.3 kmh N 10.0 mph16.1 kmh 30.38 in1028.8 mb 0.00 in0.0 mm 0.00 in0.0 mm 0.00 in0.0 mm
03:30 AM 36.5°F2.5°C 34.3°F1.3°C 92% 7.0 mph N11.3 kmh N 10.0 mph16.1 kmh 30.37 in1028.4 mb 0.00 in0.0 mm 0.00 in0.0 mm 0.00 in0.0 mm
03:27 AM 36.5°F2.5°C 34.3°F1.3°C 92% 6.0 mph N9.7 kmh N 9.0 mph14.5 kmh 30.38 in1028.8 mb 0.00 in0.0 mm 0.00 in0.0 mm 0.00 in0.0 mm
03:24 AM 36.7°F2.6°C 34.5°F1.4°C 92% 6.0 mph N9.7 kmh N 9.0 mph14.5 kmh 30.38 in1028.8 mb 0.00 in0.0 mm 0.00 in0.0 mm 0.00 in0.0 mm
03:21 AM 36.7°F2.6°C 34.5°F1.4°C 92% 7.0 mph N11.3 kmh N 10.0 mph16.1 kmh 30.38 in1028.8 mb 0.00 in0.0 mm 0.00 in0.0 mm 0.00 in0.0 mm
03:18 AM 36.5°F2.5°C 34.3°F1.3°C 92% 7.0 mph NNW11.3 kmh NNW 10.0 mph16.1 kmh 30.38 in1028.8 mb 0.00 in0.0 mm 0.00 in0.0 mm 0.00 in0.0 mm
03:15 AM 36.5°F2.5°C 34.3°F1.3°C 92% 7.0 mph N11.3 kmh N 10.0 mph16.1 kmh 30.38 in1028.8 mb 0.00 in0.0 mm 0.00 in0.0 mm 0.00 in0.0 mm
03:12 AM 36.3°F2.4°C 34.3°F1.3°C 92% 7.0 mph N11.3 kmh N 10.0 mph16.1 kmh 30.38 in1028.8 mb 0.00 in0.0 mm 0.00 in0.0 mm 0.00 in0.0 mm
03:09 AM 36.3°F2.4°C 34.3°F1.3°C 92% 7.0 mph N11.3 kmh N 10.0 mph16.1 kmh 30.38 in1028.8 mb 0.00 in0.0 mm 0.00 in0.0 mm 0.00 in0.0 mm
03:06 AM 36.3°F2.4°C 34.2°F1.2°C 92% 7.0 mph NNW11.3 kmh NNW 10.0 mph16.1 kmh 30.39 in1029.1 mb 0.00 in0.0 mm 0.00 in0.0 mm 0.00 in0.0 mm
03:03 AM 36.1°F2.3°C 34.0°F1.1°C 92% 8.0 mph NNW12.9 kmh NNW 10.0 mph16.1 kmh 30.39 in1029.1 mb 0.00 in0.0 mm 0.00 in0.0 mm 0.00 in0.0 mm
03:00 AM 36.1°F2.3°C 34.0°F1.1°C 92% 7.0 mph NNW11.3 kmh NNW 10.0 mph16.1 kmh 30.38 in1028.8 mb 0.00 in0.0 mm 0.00 in0.0 mm 0.00 in0.0 mm
02:57 AM 36.0°F2.2°C 33.6°F0.9°C 91% 6.0 mph NNW9.7 kmh NNW 10.0 mph16.1 kmh 30.39 in1029.1 mb 0.00 in0.0 mm 0.00 in0.0 mm 0.00 in0.0 mm
02:54 AM 36.1°F2.3°C 33.8°F1.0°C 91% 5.0 mph NNW8.0 kmh NNW 9.0 mph14.5 kmh 30.39 in1029.1 mb 0.00 in0.0 mm 0.00 in0.0 mm 0.00 in0.0 mm
02:51 AM 36.3°F2.4°C 34.0°F1.1°C 91% 5.0 mph NNW8.0 kmh NNW 9.0 mph14.5 kmh 30.39 in1029.1 mb 0.00 in0.0 mm 0.00 in0.0 mm 0.00 in0.0 mm
02:48 AM 36.3°F2.4°C 34.0°F1.1°C 91% 7.0 mph NNW11.3 kmh NNW 12.0 mph19.3 kmh 30.39 in1029.1 mb 0.00 in0.0 mm 0.00 in0.0 mm 0.00 in0.0 mm
02:45 AM 36.5°F2.5°C 34.2°F1.2°C 91% 9.0 mph NNW14.5 kmh NNW 12.0 mph19.3 kmh 30.39 in1029.1 mb 0.00 in0.0 mm 0.00 in0.0 mm 0.00 in0.0 mm
02:42 AM 36.7°F2.6°C 34.5°F1.4°C 92% 10.0 mph NNW16.1 kmh NNW 12.0 mph19.3 kmh 30.39 in1029.1 mb 0.00 in0.0 mm 0.00 in0.0 mm 0.00 in0.0 mm
02:39 AM 36.5°F2.5°C 34.3°F1.3°C 92% 10.0 mph NNW16.1 kmh NNW 12.0 mph19.3 kmh 30.39 in1029.1 mb 0.00 in0.0 mm 0.00 in0.0 mm 0.00 in0.0 mm
02:36 AM 36.5°F2.5°C 34.3°F1.3°C 92% 9.0 mph NNW14.5 kmh NNW 12.0 mph19.3 kmh 30.39 in1029.1 mb 0.00 in0.0 mm 0.00 in0.0 mm 0.00 in0.0 mm
02:33 AM 36.3°F2.4°C 34.0°F1.1°C 91% 8.0 mph NNW12.9 kmh NNW 11.0 mph17.7 kmh 30.39 in1029.1 mb 0.00 in0.0 mm 0.00 in0.0 mm 0.00 in0.0 mm
02:30 AM 36.3°F2.4°C 34.0°F1.1°C 91% 7.0 mph NNW11.3 kmh NNW 11.0 mph17.7 kmh 30.39 in1029.1 mb 0.00 in0.0 mm 0.00 in0.0 mm 0.00 in0.0 mm
02:27 AM 36.3°F2.4°C 34.0°F1.1°C 91% 7.0 mph NNW11.3 kmh NNW 10.0 mph16.1 kmh 30.39 in1029.1 mb 0.00 in0.0 mm 0.00 in0.0 mm 0.00 in0.0 mm
02:24 AM 36.3°F2.4°C 34.0°F1.1°C 91% 8.0 mph NNW12.9 kmh NNW 12.0 mph19.3 kmh 30.40 in1029.5 mb 0.00 in0.0 mm 0.00 in0.0 mm 0.00 in0.0 mm
02:21 AM 36.3°F2.4°C 34.0°F1.1°C 91% 8.0 mph NNW12.9 kmh NNW 12.0 mph19.3 kmh 30.40 in1029.5 mb 0.00 in0.0 mm 0.00 in0.0 mm 0.00 in0.0 mm
02:18 AM 36.3°F2.4°C 34.0°F1.1°C 91% 9.0 mph NNW14.5 kmh NNW 12.0 mph19.3 kmh 30.40 in1029.5 mb 0.00 in0.0 mm 0.00 in0.0 mm 0.00 in0.0 mm
02:15 AM 36.5°F2.5°C 34.2°F1.2°C 91% 8.0 mph NNW12.9 kmh NNW 11.0 mph17.7 kmh 30.40 in1029.5 mb 0.00 in0.0 mm 0.00 in0.0 mm 0.00 in0.0 mm
02:12 AM 36.3°F2.4°C 34.0°F1.1°C 91% 8.0 mph NNW12.9 kmh NNW 11.0 mph17.7 kmh 30.40 in1029.5 mb 0.00 in0.0 mm 0.00 in0.0 mm 0.00 in0.0 mm
02:09 AM 36.3°F2.4°C 34.0°F1.1°C 91% 8.0 mph NNW12.9 kmh NNW 11.0 mph17.7 kmh 30.40 in1029.5 mb 0.00 in0.0 mm 0.00 in0.0 mm 0.00 in0.0 mm
02:06 AM 36.3°F2.4°C 34.0°F1.1°C 91% 6.0 mph NNW9.7 kmh NNW 11.0 mph17.7 kmh 30.39 in1029.1 mb 0.00 in0.0 mm 0.00 in0.0 mm 0.00 in0.0 mm
02:03 AM 36.3°F2.4°C 34.0°F1.1°C 91% 6.0 mph NNW9.7 kmh NNW 10.0 mph16.1 kmh 30.40 in1029.5 mb 0.00 in0.0 mm 0.00 in0.0 mm 0.00 in0.0 mm
02:00 AM 36.5°F2.5°C 34.2°F1.2°C 91% 6.0 mph NNW9.7 kmh NNW 9.0 mph14.5 kmh 30.40 in1029.5 mb 0.00 in0.0 mm 0.00 in0.0 mm 0.00 in0.0 mm
01:57 AM 36.5°F2.5°C 34.2°F1.2°C 91% 7.0 mph NNW11.3 kmh NNW 10.0 mph16.1 kmh 30.40 in1029.5 mb 0.00 in0.0 mm 0.00 in0.0 mm 0.00 in0.0 mm
01:54 AM 36.7°F2.6°C 34.2°F1.2°C 91% 8.0 mph NNW12.9 kmh NNW 11.0 mph17.7 kmh 30.40 in1029.5 mb 0.00 in0.0 mm 0.00 in0.0 mm 0.00 in0.0 mm
01:51 AM 36.7°F2.6°C 34.3°F1.3°C 91% 8.0 mph NNW12.9 kmh NNW 11.0 mph17.7 kmh 30.40 in1029.5 mb 0.00 in0.0 mm 0.00 in0.0 mm 0.00 in0.0 mm
01:48 AM 36.7°F2.6°C 34.3°F1.3°C 91% 8.0 mph NNW12.9 kmh NNW 11.0 mph17.7 kmh 30.40 in1029.5 mb 0.00 in0.0 mm 0.00 in0.0 mm 0.00 in0.0 mm
01:45 AM 36.9°F2.7°C 34.3°F1.3°C 91% 8.0 mph NNW12.9 kmh NNW 11.0 mph17.7 kmh 30.40 in1029.5 mb 0.00 in0.0 mm 0.00 in0.0 mm 0.00 in0.0 mm
01:42 AM 37.0°F2.8°C 34.7°F1.5°C 91% 8.0 mph NNW12.9 kmh NNW 11.0 mph17.7 kmh 30.40 in1029.5 mb 0.00 in0.0 mm 0.00 in0.0 mm 0.00 in0.0 mm
01:39 AM 37.0°F2.8°C 34.7°F1.5°C 91% 9.0 mph NNW14.5 kmh NNW 12.0 mph19.3 kmh 30.40 in1029.5 mb 0.00 in0.0 mm 0.00 in0.0 mm 0.00 in0.0 mm
01:36 AM 37.0°F2.8°C 34.7°F1.5°C 91% 9.0 mph NNW14.5 kmh NNW 12.0 mph19.3 kmh 30.40 in1029.5 mb 0.00 in0.0 mm 0.00 in0.0 mm 0.00 in0.0 mm
01:33 AM 37.0°F2.8°C 34.7°F1.5°C 91% 9.0 mph NNW14.5 kmh NNW 12.0 mph19.3 kmh 30.40 in1029.5 mb 0.00 in0.0 mm 0.00 in0.0 mm 0.00 in0.0 mm
01:30 AM 37.0°F2.8°C 34.7°F1.5°C 91% 8.0 mph NNW12.9 kmh NNW 10.0 mph16.1 kmh 30.40 in1029.5 mb 0.00 in0.0 mm 0.00 in0.0 mm 0.00 in0.0 mm
01:27 AM 37.0°F2.8°C 34.7°F1.5°C 91% 8.0 mph NNW12.9 kmh NNW 10.0 mph16.1 kmh 30.40 in1029.5 mb 0.00 in0.0 mm 0.00 in0.0 mm 0.00 in0.0 mm
01:24 AM 36.9°F2.7°C 34.5°F1.4°C 91% 8.0 mph NNW12.9 kmh NNW 10.0 mph16.1 kmh 30.40 in1029.5 mb 0.00 in0.0 mm 0.00 in0.0 mm 0.00 in0.0 mm
01:21 AM 36.9°F2.7°C 34.5°F1.4°C 91% 8.0 mph NNW12.9 kmh NNW 10.0 mph16.1 kmh 30.40 in1029.5 mb 0.00 in0.0 mm 0.00 in0.0 mm 0.00 in0.0 mm
01:18 AM 37.0°F2.8°C 34.7°F1.5°C 91% 8.0 mph NNW12.9 kmh NNW 10.0 mph16.1 kmh 30.40 in1029.5 mb 0.00 in0.0 mm 0.00 in0.0 mm 0.00 in0.0 mm
01:15 AM 37.0°F2.8°C 34.7°F1.5°C 91% 8.0 mph NNW12.9 kmh NNW 11.0 mph17.7 kmh 30.40 in1029.5 mb 0.00 in0.0 mm 0.00 in0.0 mm 0.00 in0.0 mm
01:12 AM 37.0°F2.8°C 34.7°F1.5°C 91% 8.0 mph NNW12.9 kmh NNW 11.0 mph17.7 kmh 30.40 in1029.5 mb 0.00 in0.0 mm 0.00 in0.0 mm 0.00 in0.0 mm
01:09 AM 37.0°F2.8°C 34.7°F1.5°C 91% 8.0 mph NNW12.9 kmh NNW 11.0 mph17.7 kmh 30.41 in1029.8 mb 0.00 in0.0 mm 0.00 in0.0 mm 0.00 in0.0 mm
01:06 AM 37.0°F2.8°C 34.7°F1.5°C 91% 8.0 mph NNW12.9 kmh NNW 11.0 mph17.7 kmh 30.41 in1029.8 mb 0.00 in0.0 mm 0.00 in0.0 mm 0.00 in0.0 mm
01:03 AM 37.0°F2.8°C 34.7°F1.5°C 91% 7.0 mph NNW11.3 kmh NNW 10.0 mph16.1 kmh 30.41 in1029.8 mb 0.00 in0.0 mm 0.00 in0.0 mm 0.00 in0.0 mm
01:00 AM 36.9°F2.7°C 34.5°F1.4°C 91% 7.0 mph NNW11.3 kmh NNW 10.0 mph16.1 kmh 30.41 in1029.8 mb 0.00 in0.0 mm 0.00 in0.0 mm 0.00 in0.0 mm
12:57 AM 36.9°F2.7°C 34.3°F1.3°C 91% 8.0 mph NNW12.9 kmh NNW 10.0 mph16.1 kmh 30.41 in1029.8 mb 0.00 in0.0 mm 0.00 in0.0 mm 0.00 in0.0 mm
12:54 AM 36.7°F2.6°C 34.3°F1.3°C 91% 8.0 mph NNW12.9 kmh NNW 10.0 mph16.1 kmh 30.41 in1029.8 mb 0.00 in0.0 mm 0.00 in0.0 mm 0.00 in0.0 mm
12:51 AM 36.7°F2.6°C 34.2°F1.2°C 91% 8.0 mph NNW12.9 kmh NNW 10.0 mph16.1 kmh 30.41 in1029.8 mb 0.00 in0.0 mm 0.00 in0.0 mm 0.00 in0.0 mm
12:48 AM 36.7°F2.6°C 34.2°F1.2°C 91% 8.0 mph NNW12.9 kmh NNW 10.0 mph16.1 kmh 30.41 in1029.8 mb 0.00 in0.0 mm 0.00 in0.0 mm 0.00 in0.0 mm
12:45 AM 36.7°F2.6°C 34.2°F1.2°C 91% 8.0 mph NNW12.9 kmh NNW 10.0 mph16.1 kmh 30.41 in1029.8 mb 0.00 in0.0 mm 0.00 in0.0 mm 0.00 in0.0 mm
12:42 AM 36.7°F2.6°C 34.0°F1.1°C 90% 7.0 mph NNW11.3 kmh NNW 9.0 mph14.5 kmh 30.41 in1029.8 mb 0.00 in0.0 mm 0.00 in0.0 mm 0.00 in0.0 mm
12:39 AM 36.7°F2.6°C 34.3°F1.3°C 91% 7.0 mph NNW11.3 kmh NNW 9.0 mph14.5 kmh 30.41 in1029.8 mb 0.00 in0.0 mm 0.00 in0.0 mm 0.00 in0.0 mm
12:36 AM 36.7°F2.6°C 34.3°F1.3°C 91% 7.0 mph NNW11.3 kmh NNW 9.0 mph14.5 kmh 30.41 in1029.8 mb 0.00 in0.0 mm 0.00 in0.0 mm 0.00 in0.0 mm
12:33 AM 36.9°F2.7°C 34.3°F1.3°C 91% 6.0 mph NNW9.7 kmh NNW 9.0 mph14.5 kmh 30.41 in1029.8 mb 0.00 in0.0 mm 0.00 in0.0 mm 0.00 in0.0 mm
12:30 AM 36.9°F2.7°C 34.2°F1.2°C 90% 7.0 mph NNW11.3 kmh NNW 9.0 mph14.5 kmh 30.41 in1029.8 mb 0.00 in0.0 mm 0.00 in0.0 mm 0.00 in0.0 mm
12:27 AM 36.9°F2.7°C 34.2°F1.2°C 90% 6.0 mph NNW9.7 kmh NNW 9.0 mph14.5 kmh 30.41 in1029.8 mb 0.00 in0.0 mm 0.00 in0.0 mm 0.00 in0.0 mm
12:24 AM 36.9°F2.7°C 34.2°F1.2°C 90% 6.0 mph NNW9.7 kmh NNW 9.0 mph14.5 kmh 30.41 in1029.8 mb 0.00 in0.0 mm 0.00 in0.0 mm 0.00 in0.0 mm
12:21 AM 36.9°F2.7°C 34.2°F1.2°C 90% 6.0 mph NNW9.7 kmh NNW 9.0 mph14.5 kmh 30.41 in1029.8 mb 0.00 in0.0 mm 0.00 in0.0 mm 0.00 in0.0 mm
12:18 AM 36.9°F2.7°C 34.2°F1.2°C 90% 7.0 mph NNW11.3 kmh NNW 9.0 mph14.5 kmh 30.41 in1029.8 mb 0.00 in0.0 mm 0.00 in0.0 mm 0.00 in0.0 mm
12:15 AM 37.0°F2.8°C 34.3°F1.3°C 90% 7.0 mph NNW11.3 kmh NNW 9.0 mph14.5 kmh 30.41 in1029.8 mb 0.00 in0.0 mm 0.00 in0.0 mm 0.00 in0.0 mm
12:12 AM 37.0°F2.8°C 34.3°F1.3°C 90% 8.0 mph NNW12.9 kmh NNW 11.0 mph17.7 kmh 30.41 in1029.8 mb 0.00 in0.0 mm 0.00 in0.0 mm 0.00 in0.0 mm
12:09 AM 37.0°F2.8°C 34.5°F1.4°C 90% 8.0 mph NNW12.9 kmh NNW 11.0 mph17.7 kmh 30.41 in1029.8 mb 0.00 in0.0 mm 0.00 in0.0 mm 0.00 in0.0 mm
12:06 AM 37.0°F2.8°C 34.5°F1.4°C 90% 8.0 mph NNW12.9 kmh NNW 11.0 mph17.7 kmh 30.41 in1029.8 mb 0.00 in0.0 mm 0.00 in0.0 mm 0.00 in0.0 mm
12:03 AM 37.2°F2.9°C 34.5°F1.4°C 90% 8.0 mph NNW12.9 kmh NNW 10.0 mph16.1 kmh 30.41 in1029.8 mb 0.00 in0.0 mm 0.00 in0.0 mm 0.00 in0.0 mm
12:00 AM 37.2°F2.9°C 34.5°F1.4°C 90% 8.0 mph NNW12.9 kmh NNW 10.0 mph16.1 kmh 30.41 in1029.8 mb 0.00 in0.0 mm 0.00 in0.0 mm 0.00 in0.0 mm